Latest Weather Observations for Moruya Airport

IDN60801

Issued at 11:32 am EDT Wednesday 10 February 2016 (issued every 30 minutes, with the page automatically refreshed every 10 minutes)

About weather observations | Map of weather stations | Latest weather observations for NSW | Other Formats
Station Details ID: 069148 Name: MORUYA AIRPORT AWS Lat: -35.90 Lon: 150.14 Height: 4.0 m
Data from the previous 72 hours. | See also: Recent months at Moruya Airport
Date/Time
EDT
Temp
°C
App
Temp
°C
Dew
Point
Rel
Hum
%
Delta-T
°C
Wind Press
QNH
hPa
Press
MSL
hPa
Rain
since 9 am
mm
Dir
 
Spd
km/h
Gust
km/h
Spd
kts
Gust
kts
10/11:30am 25.4 24.2 17.6 62 4.9 NE 20 26 11 14 1012.9 1012.8 0.0
10/11:00am 24.6 23.3 18.1 67 4.1 NE 22 26 12 14 1013.3 1013.2 0.0
10/10:30am 24.3 23.5 17.1 64 4.5 NE 17 20 9 11 1013.5 1013.4 0.0
10/10:00am 24.7 24.3 16.2 59 5.2 N 13 19 7 10 1013.8 1013.7 0.0
10/09:30am 23.8 24.0 16.8 65 4.3 N 11 17 6 9 1014.3 1014.2 0.0
10/09:00am 22.2 22.2 16.2 69 3.6 NNE 11 17 6 9 1014.4 1014.3 0.0
10/08:30am 20.4 20.8 16.2 77 2.5 NE 9 13 5 7 1014.5 1014.4 0.0
10/08:00am 18.2 19.0 15.8 86 1.4 NW 6 9 3 5 1014.6 1014.5 0.0
10/07:30am 17.0 17.7 15.7 92 0.8 NW 6 9 3 5 1014.7 1014.6 0.0
10/07:00am 15.7 15.5 14.7 94 0.6 NW 9 11 5 6 1014.5 1014.4 0.0
10/06:36am 15.2 14.9 14.4 95 0.5 NW 9 11 5 6 1014.4 1014.3 0.0
10/06:30am 15.2 14.9 14.4 95 0.5 NW 9 11 5 6 1014.4 1014.3 0.0
10/06:00am 14.5 15.7 13.7 95 0.4 CALM 0 0 0 0 1014.5 1014.4 0.0
10/05:30am 14.7 15.9 13.7 94 0.6 CALM 0 0 0 0 1014.6 1014.5 0.0
10/05:21am 14.2 15.2 13.2 94 0.6 CALM 0 0 0 0 1014.6 1014.5 0.0
10/05:00am 15.1 15.3 14.3 95 0.5 NW 6 9 3 5 1014.6 1014.5 0.0
10/04:53am 15.3 15.4 14.5 95 0.5 NW 7 9 4 5 1014.5 1014.4 0.0
10/04:30am 14.5 14.8 13.4 93 0.6 NW 4 6 2 3 1014.6 1014.5 0.0
10/04:00am 15.3 15.5 14.3 94 0.6 N 6 6 3 3 1014.8 1014.7 0.0
10/03:55am 15.4 15.7 14.4 94 0.6 N 6 6 3 3 1014.9 1014.8 0.0
10/03:52am 15.3 15.5 14.3 94 0.6 N 6 6 3 3 1014.9 1014.8 0.0
10/03:40am 15.1 16.4 14.0 93 0.6 CALM 0 6 0 3 1015.0 1014.9 0.0
10/03:30am 15.9 17.5 14.8 93 0.6 CALM 0 0 0 0 1015.1 1015.0 0.0
10/03:00am 16.2 16.2 15.1 93 0.6 NW 9 9 5 5 1015.4 1015.3 0.0
10/02:30am 16.4 16.4 15.3 93 0.6 NNW 9 13 5 7 1015.8 1015.7 0.0
10/02:00am 16.3 16.7 15.2 93 0.6 NW 7 11 4 6 1016.3 1016.2 0.0
10/01:30am 16.4 16.8 15.3 93 0.6 NNW 7 9 4 5 1016.6 1016.5 0.0
10/01:00am 16.9 17.4 15.6 92 0.8 NW 7 9 4 5 1017.2 1017.1 0.0
10/12:30am 16.9 17.5 15.8 93 0.6 NNW 7 9 4 5 1017.6 1017.5 0.0
10/12:00am 17.1 18.2 15.6 91 0.9 NNW 4 7 2 4 1018.1 1018.0 0.0
 
Date/Time
EDT
Temp
°C
App
Temp
°C
Dew
Point
Rel
Hum
%
Delta-T
°C
Wind Press
QNH
hPa
Press
MSL
hPa
Rain
since 9 am
mm
Dir
 
Spd
km/h
Gust
km/h
Spd
kts
Gust
kts
09/11:30pm 17.5 18.3 15.8 90 1.0 NW 6 7 3 4 1018.4 1018.3 0.0
09/11:00pm 17.7 18.4 16.0 90 1.0 NW 7 7 4 4 1018.7 1018.6 0.0
09/10:30pm 17.9 18.6 16.2 90 1.0 NW 7 9 4 5 1019.0 1018.9 0.0
09/10:00pm 18.1 18.9 16.4 90 1.0 NW 7 9 4 5 1019.1 1019.0 0.0
09/09:30pm 18.3 19.5 15.9 86 1.4 NNW 4 6 2 3 1019.0 1018.9 0.0
09/09:00pm 19.0 19.8 15.9 82 1.8 NNW 6 7 3 4 1018.9 1018.8 0.0
09/08:30pm 20.3 21.0 16.1 77 2.5 N 7 9 4 5 1018.9 1018.8 0.0
09/08:00pm 21.5 21.9 16.2 72 3.2 NE 9 11 5 6 1018.9 1018.8 0.0
09/07:30pm 22.1 22.0 15.9 68 3.7 NE 11 15 6 8 1018.8 1018.7 0.0
09/07:00pm 22.7 22.7 16.3 67 3.9 ENE 11 13 6 7 1018.7 1018.6 0.0
09/06:30pm 23.0 23.0 16.3 66 4.1 ENE 11 15 6 8 1018.6 1018.5 0.0
09/06:00pm 23.5 23.1 16.1 63 4.5 ENE 13 17 7 9 1018.6 1018.5 0.0
09/05:30pm 23.4 22.9 16.0 63 4.5 E 13 17 7 9 1018.7 1018.6 0.0
09/05:00pm 24.0 23.5 16.8 64 4.4 ENE 15 17 8 9 1018.9 1018.8 0.0
09/04:30pm 23.7 22.9 16.2 63 4.6 E 15 20 8 11 1019.1 1019.0 0.0
09/04:00pm 24.0 22.8 16.0 61 4.8 E 17 20 9 11 1019.4 1019.3 0.0
09/03:30pm 24.1 23.0 16.4 62 4.7 E 17 20 9 11 1019.7 1019.6 0.0
09/03:00pm 23.8 22.5 15.8 61 4.8 E 17 20 9 11 1020.0 1019.9 0.0
09/02:30pm 23.8 22.4 15.6 60 4.9 E 17 20 9 11 1020.3 1020.2 0.0
09/02:00pm 23.8 22.8 15.6 60 4.9 E 15 20 8 11 1020.6 1020.5 0.0
09/01:30pm 23.9 22.6 15.7 60 5.0 E 17 22 9 12 1020.8 1020.7 0.0
09/01:00pm 23.8 22.4 15.6 60 4.9 ESE 17 20 9 11 1021.1 1021.0 0.0
09/12:30pm 23.3 21.6 14.8 59 5.0 ESE 17 22 9 12 1021.3 1021.2 0.0
09/12:00pm 23.8 21.8 15.0 57 5.2 SE 19 24 10 13 1021.6 1021.5 0.0
09/11:30am 23.5 21.8 14.8 58 5.2 SE 17 22 9 12 1021.9 1021.8 0.0
09/11:00am 23.2 20.8 13.7 55 5.5 SE 19 26 10 14 1022.0 1021.9 0.0
09/10:30am 22.5 19.8 13.0 55 5.4 SE 19 26 10 14 1022.0 1021.9 0.0
09/10:00am 23.1 21.0 12.4 51 6.1 S 15 20 8 11 1022.1 1022.0 0.0
09/09:30am 21.7 20.0 13.6 60 4.7 S 15 20 8 11 1022.1 1022.0 0.0
09/09:00am 21.8 20.7 15.2 66 3.9 S 15 24 8 13 1021.9 1021.8 0.0
09/08:30am 20.4 21.2 16.4 78 2.4 SSW 7 11 4 6 1021.9 1021.8 0.0
09/08:00am 19.8 20.2 16.4 81 2.0 SSW 9 13 5 7 1021.7 1021.6 0.0
09/07:30am 19.1 19.5 16.3 84 1.7 SW 9 13 5 7 1021.3 1021.2 0.0
09/07:00am 19.2 19.9 16.2 83 1.8 WSW 7 11 4 6 1020.9 1020.8 0.0
09/06:30am 19.4 19.3 16.1 81 2.0 S 11 17 6 9 1020.6 1020.5 0.0
09/06:00am 19.7 18.5 16.2 80 2.1 S 17 22 9 12 1020.3 1020.2 0.0
09/05:30am 20.3 18.5 16.1 77 2.5 S 20 30 11 16 1020.0 1019.9 0.0
09/05:00am 20.3 19.6 17.3 83 1.8 S 17 22 9 12 1019.7 1019.6 0.0
09/04:30am 19.9 21.1 18.2 90 1.1 SSW 9 15 5 8 1019.6 1019.5 0.0
09/04:00am 19.1 20.6 17.6 91 0.9 WSW 6 7 3 4 1019.4 1019.3 0.0
09/03:55am 19.0 20.5 17.5 91 0.9 WSW 6 9 3 5 1019.4 1019.3 0.0
09/03:36am 19.4 21.7 17.7 90 1.0 WSW 2 7 1 4 1019.5 1019.4 0.0
09/03:30am 19.3 20.8 17.6 90 1.0 W 6 7 3 4 1019.5 1019.4 0.0
09/03:00am 20.1 21.9 18.2 89 1.2 W 6 7 3 4 1019.5 1019.4 0.0
09/02:57am 20.1 22.6 18.2 89 1.2 W 2 7 1 4 1019.6 1019.5 0.0
09/02:38am 20.5 23.1 18.3 87 1.4 WNW 2 6 1 3 1019.7 1019.6 0.0
09/02:30am 20.6 23.1 18.2 86 1.5 W 2 6 1 3 1019.8 1019.7 0.0
09/02:00am 21.0 24.0 18.4 85 1.6 CALM 0 0 0 0 1019.9 1019.8 0.0
09/01:50am 21.0 24.0 18.4 85 1.6 CALM 0 0 0 0 1020.0 1019.9 0.0
09/01:30am 21.1 24.1 18.5 85 1.6 CALM 0 6 0 3 1020.1 1020.0 0.0
09/01:00am 21.3 23.6 18.5 84 1.7 WSW 4 7 2 4 1020.3 1020.2 0.0
09/12:30am 21.4 23.1 18.6 84 1.8 WSW 7 9 4 5 1020.4 1020.3 0.0
09/12:00am 21.9 23.2 18.5 81 2.1 S 9 13 5 7 1020.5 1020.4 0.0
 
Date/Time
EDT
Temp
°C
App
Temp
°C
Dew
Point
Rel
Hum
%
Delta-T
°C
Wind Press
QNH
hPa
Press
MSL
hPa
Rain
since 9 am
mm
Dir
 
Spd
km/h
Gust
km/h
Spd
kts
Gust
kts
08/11:30pm 21.6 23.3 18.4 82 2.0 SSE 7 13 4 7 1020.5 1020.4 0.0
08/11:00pm 21.8 22.2 19.0 84 1.8 S 15 20 8 11 1020.8 1020.7 0.0
08/10:30pm 21.7 22.1 18.9 84 1.8 S 15 19 8 10 1020.8 1020.7 0.0
08/10:00pm 22.0 22.6 19.5 86 1.6 S 15 20 8 11 1020.6 1020.5 0.0
08/09:30pm 22.1 24.2 19.3 84 1.8 S 7 13 4 7 1020.3 1020.2 0.0
08/09:00pm 21.5 23.3 18.7 84 1.8 SSW 7 11 4 6 1020.0 1019.9 0.0
08/08:30pm 22.1 23.9 18.7 81 2.1 SSW 7 11 4 6 1019.7 1019.6 0.0
08/08:00pm 22.8 23.8 18.6 77 2.6 SSE 11 17 6 9 1019.5 1019.4 0.0
08/07:30pm 23.5 23.6 18.4 73 3.2 SSE 15 20 8 11 1019.2 1019.1 0.0
08/07:00pm 23.7 23.5 18.6 73 3.2 SSE 17 24 9 13 1019.0 1018.9 0.0
08/06:30pm 24.5 24.3 18.4 69 3.9 SSE 17 24 9 13 1018.6 1018.5 0.0
08/06:00pm 24.7 24.6 17.9 66 4.3 SSE 15 19 8 10 1018.4 1018.3 0.0
08/05:30pm 25.1 25.5 18.1 65 4.4 SE 13 17 7 9 1018.5 1018.4 0.0
08/05:00pm 25.0 25.2 17.7 64 4.6 ESE 13 15 7 8 1018.3 1018.2 0.0
08/04:30pm 25.2 25.9 17.9 64 4.6 ESE 11 17 6 9 1018.3 1018.2 0.0
08/04:00pm 25.5 25.9 18.2 64 4.6 E 13 17 7 9 1018.3 1018.2 0.0
08/03:30pm 25.1 25.4 17.8 64 4.6 ENE 13 17 7 9 1018.3 1018.2 0.0
08/03:00pm 25.7 26.5 19.1 67 4.2 ENE 13 17 7 9 1018.2 1018.1 0.0
08/02:30pm 25.1 25.5 19.0 69 3.9 ENE 15 19 8 10 1018.5 1018.4 0.0
08/02:00pm 24.7 24.7 18.9 70 3.7 ENE 17 19 9 10 1018.5 1018.4 0.0
08/01:30pm 24.8 24.8 19.0 70 3.7 ENE 17 19 9 10 1018.6 1018.5 0.0
08/01:00pm 24.6 25.2 18.5 69 3.9 ENE 13 15 7 8 1018.7 1018.6 0.0
08/12:30pm 23.9 23.9 18.1 70 3.6 ENE 15 17 8 9 1018.9 1018.8 0.0
08/12:00pm 24.5 25.0 19.3 73 3.3 ENE 15 17 8 9 1019.1 1019.0 0.0
08/11:30am 23.9 24.3 18.1 70 3.6 ENE 13 17 7 9 1019.2 1019.1 0.0
08/11:00am 24.0 25.0 17.7 68 3.9 ENE 9 13 5 7 1019.3 1019.2 0.0
08/10:30am 23.7 24.7 17.7 69 3.7 E 9 13 5 7 1019.3 1019.2 0.0
08/10:00am 23.5 24.7 16.8 66 4.1 SE 6 9 3 5 1019.3 1019.2 0.0
08/09:30am 22.3 23.6 17.2 73 3.1 SSW 6 9 3 5 1019.2 1019.1 0.0
08/09:00am 20.6 21.3 17.0 80 2.2 SW 9 11 5 6 1019.2 1019.1 0.0
08/08:30am 18.9 19.8 16.7 87 1.3 SW 7 9 4 5 1018.9 1018.8 0.0
08/08:00am 17.8 20.1 16.8 94 0.6 CALM 0 0 0 0 1018.7 1018.6 0.0
08/07:30am 16.8 18.9 16.2 96 0.4 CALM 0 0 0 0 1018.6 1018.5 0.0
08/07:21am 16.1 17.9 15.5 96 0.3 CALM 0 0 0 0 1018.5 1018.4 0.0
08/07:00am 14.7 16.0 14.1 96 0.3 CALM 0 0 0 0 1018.4 1018.3 0.0
08/06:30am 14.0 15.1 13.4 96 0.3 CALM 0 0 0 0 1018.2 1018.1 0.0
08/06:00am 14.8 16.1 14.2 96 0.3 CALM 0 0 0 0 1018.0 1017.9 0.0
08/05:30am 14.2 15.3 13.6 96 0.3 CALM 0 0 0 0 1017.9 1017.8 0.0
08/05:00am 13.8 14.7 13.0 95 0.4 CALM 0 0 0 0 1017.9 1017.8 0.0
08/04:30am 15.0 16.4 14.4 96 0.3 CALM 0 0 0 0 1017.9 1017.8 0.0
08/04:00am 15.0 16.4 14.4 96 0.3 CALM 0 6 0 3 1017.8 1017.7 0.0
08/03:30am 14.8 16.1 14.0 95 0.4 CALM 0 0 0 0 1017.9 1017.8 0.0
08/03:00am 15.4 16.9 14.6 95 0.5 CALM 0 0 0 0 1018.1 1018.0 0.0
08/02:30am 15.1 16.4 14.1 94 0.6 CALM 0 0 0 0 1018.3 1018.2 0.0
08/02:00am 15.5 16.9 14.5 94 0.6 CALM 0 0 0 0 1018.5 1018.4 0.0
08/01:39am 16.1 17.8 15.1 94 0.6 CALM 0 2 0 1 1018.6 1018.5 0.0
08/01:30am 15.5 16.5 14.4 93 0.6 WNW 2 6 1 3 1018.6 1018.5 0.0
08/01:00am 16.9 18.9 15.9 94 0.6 CALM 0 0 0 0 1019.0 1018.9 0.0
08/12:30am 16.6 18.4 15.6 94 0.6 CALM 0 0 0 0 1019.1 1019.0 0.0
08/12:00am 16.7 18.5 15.6 93 0.6 CALM 0 0 0 0 1019.0 1018.9 0.0
 
Date/Time
EDT
Temp
°C
App
Temp
°C
Dew
Point
Rel
Hum
%
Delta-T
°C
Wind Press
QNH
hPa
Press
MSL
hPa
Rain
since 9 am
mm
Dir
 
Spd
km/h
Gust
km/h
Spd
kts
Gust
kts
07/11:30pm 17.2 19.2 16.1 93 0.7 CALM 0 0 0 0 1018.9 1018.8 0.0
07/11:00pm 16.8 18.6 15.5 92 0.8 CALM 0 0 0 0 1018.8 1018.7 0.0
07/10:30pm 17.0 18.7 15.3 90 1.0 CALM 0 0 0 0 1018.7 1018.6 0.0
07/10:24pm 17.3 19.1 15.6 90 1.0 CALM 0 0 0 0 1018.7 1018.6 0.0
07/10:10pm 17.8 19.9 16.3 91 0.9 CALM 0 0 0 0 1018.8 1018.7 0.0
07/10:00pm 17.9 20.0 16.2 90 1.0 CALM 0 0 0 0 1018.7 1018.6 0.0
07/09:30pm 18.4 20.5 16.2 87 1.3 CALM 0 0 0 0 1018.4 1018.3 0.0
07/09:14pm 18.9 21.1 16.5 86 1.4 CALM 0 0 0 0 1018.2 1018.1 0.0
07/09:00pm 19.1 21.1 16.1 83 1.8 CALM 0 0 0 0 1018.1 1018.0 0.0
07/08:55pm 19.4 21.6 16.4 83 1.8 CALM 0 4 0 2 1018.0 1017.9 0.0
07/08:51pm 19.6 21.4 16.4 82 1.9 N 2 6 1 3 1018.0 1017.9 0.0
07/08:30pm 20.6 21.8 16.8 79 2.3 N 6 7 3 4 1017.8 1017.7 0.0
07/08:26pm 20.8 22.0 16.8 78 2.4 N 6 7 3 4 1017.8 1017.7 0.0
07/08:00pm 22.4 22.7 17.1 72 3.2 NNE 11 15 6 8 1017.5 1017.4 0.0
07/07:30pm 23.1 23.1 17.3 70 3.6 NE 13 19 7 10 1017.1 1017.0 0.0
07/07:00pm 23.8 23.4 18.0 70 3.6 NE 17 20 9 11 1016.7 1016.6 0.0
07/06:30pm 24.2 23.7 17.9 68 3.9 NE 17 20 9 11 1016.5 1016.4 0.0
07/06:00pm 24.2 23.4 17.2 65 4.3 NE 17 20 9 11 1016.3 1016.2 0.0
07/05:30pm 24.4 23.6 17.1 63 4.5 NE 17 24 9 13 1016.3 1016.2 0.0
07/05:00pm 24.8 23.7 17.8 65 4.4 NE 20 24 11 13 1016.4 1016.3 0.0
07/04:30pm 24.8 23.5 17.3 63 4.7 NE 20 24 11 13 1016.4 1016.3 0.0
07/04:00pm 24.8 23.5 17.3 63 4.7 NE 20 28 11 15 1016.3 1016.2 0.0
07/03:30pm 24.8 22.8 16.5 60 5.1 NE 22 28 12 15 1016.4 1016.3 0.0
07/03:00pm 25.1 23.1 17.3 62 4.8 NE 24 30 13 16 1016.5 1016.4 0.0
07/02:30pm 24.8 22.8 17.5 64 4.6 ENE 24 28 13 15 1016.6 1016.5 0.0
07/02:00pm 24.4 22.3 17.1 63 4.5 ENE 24 28 13 15 1016.7 1016.6 0.0
07/01:30pm 24.3 22.3 17.5 66 4.2 ENE 24 28 13 15 1016.9 1016.8 0.0
07/01:00pm 24.2 22.0 17.0 64 4.4 NE 24 30 13 16 1017.0 1016.9 0.0
07/12:30pm 24.0 21.3 16.5 63 4.6 NE 26 30 14 16 1017.1 1017.0 0.0
07/12:00pm 24.2 21.7 17.0 64 4.4 NE 26 30 14 16 1017.3 1017.2 0.0

Other Formats:

Comma delimited format used in spreadsheet applications
http://www.bom.gov.au/fwo/IDN60801/IDN60801.95937.axf

JavaScript Object Notation format (JSON) in row-major order
http://www.bom.gov.au/fwo/IDN60801/IDN60801.95937.json